createdAt,value
2018-05-18T00:00:22.864Z,49.03
2018-05-18T00:02:50.998Z,50.83
2018-05-18T00:05:19.145Z,61.73
2018-05-18T00:07:47.277Z,59.93
2018-05-18T00:10:15.448Z,58.30
2018-05-18T00:12:43.554Z,61.15
2018-05-18T00:15:11.710Z,56.23
2018-05-18T00:17:39.843Z,51.10
2018-05-18T00:20:07.975Z,63.77
2018-05-18T00:22:36.118Z,59.07
2018-05-18T00:25:04.255Z,58.83
2018-05-18T00:27:32.396Z,53.45
2018-05-18T00:30:00.570Z,60.80
2018-05-18T00:32:28.699Z,65.60
2018-05-18T00:34:56.820Z,58.80
2018-05-18T00:37:24.980Z,54.55
2018-05-18T00:39:53.161Z,61.70
2018-05-18T00:42:21.239Z,58.20
2018-05-18T00:44:49.392Z,57.40
2018-05-18T00:47:17.527Z,62.25
2018-05-18T00:49:45.655Z,60.43
2018-05-18T00:52:13.810Z,64.47
2018-05-18T00:54:41.947Z,62.70
2018-05-18T00:57:10.079Z,65.20
2018-05-18T00:59:38.286Z,65.50
2018-05-18T01:02:06.411Z,74.23
2018-05-18T01:04:34.539Z,74.07
2018-05-18T01:07:02.688Z,70.97
2018-05-18T01:09:30.825Z,71.45
2018-05-18T01:11:58.983Z,64.70
2018-05-18T01:14:27.122Z,65.83
2018-05-18T01:16:55.250Z,60.20
2018-05-18T01:19:23.375Z,72.37
2018-05-18T01:21:51.507Z,71.10
2018-05-18T01:24:19.660Z,87.97
2018-05-18T01:26:47.795Z,83.20
2018-05-18T01:29:16.053Z,84.53
2018-05-18T01:31:44.189Z,82.90
2018-05-18T01:34:12.329Z,94.70
2018-05-18T01:36:40.469Z,88.97
2018-05-18T01:39:08.635Z,85.40
2018-05-18T01:41:36.766Z,94.90
2018-05-18T01:44:04.923Z,96.00
2018-05-18T01:46:33.067Z,99.07
2018-05-18T01:49:01.192Z,96.33
2018-05-18T01:51:29.360Z,95.43
2018-05-18T01:53:57.499Z,94.50
2018-05-18T01:56:25.626Z,95.70
2018-05-18T01:58:53.804Z,90.07
2018-05-18T02:01:21.946Z,86.40
2018-05-18T02:03:50.071Z,87.97
2018-05-18T02:06:18.237Z,84.20
2018-05-18T02:08:46.375Z,85.67
2018-05-18T02:11:14.505Z,85.60
2018-05-18T02:13:42.658Z,88.73
2018-05-18T02:16:10.798Z,77.67
2018-05-18T02:18:38.926Z,76.73
2018-05-18T02:21:07.130Z,76.85
2018-05-18T02:23:35.292Z,92.65
2018-05-18T02:26:03.455Z,86.67
2018-05-18T02:28:31.570Z,79.37
2018-05-18T02:30:59.713Z,74.03
2018-05-18T02:33:27.845Z,79.47
2018-05-18T02:35:55.999Z,87.57
2018-05-18T02:38:24.134Z,76.53
2018-05-18T02:40:52.264Z,80.20
2018-05-18T02:43:20.420Z,82.87
2018-05-18T02:45:48.558Z,87.80
2018-05-18T02:48:16.715Z,76.10
2018-05-18T02:50:44.858Z,71.30
2018-05-18T02:53:12.998Z,78.37
2018-05-18T02:55:41.134Z,77.97
2018-05-18T02:58:09.285Z,68.73
2018-05-18T03:00:37.410Z,64.10
2018-05-18T03:03:05.675Z,66.30
2018-05-18T03:05:33.863Z,69.87
2018-05-18T03:08:01.983Z,74.87
2018-05-18T03:10:30.138Z,68.43
2018-05-18T03:12:58.269Z,64.47
2018-05-18T03:15:26.401Z,67.78
2018-05-18T03:17:54.532Z,73.60
2018-05-18T03:20:22.717Z,74.77
2018-05-18T03:22:50.859Z,65.00
2018-05-18T03:25:18.989Z,68.80
2018-05-18T03:27:47.129Z,62.90
2018-05-18T03:30:15.278Z,68.83
2018-05-18T03:32:43.404Z,63.80
2018-05-18T03:35:11.555Z,66.60
2018-05-18T03:37:39.687Z,61.93
2018-05-18T03:40:07.827Z,64.97
2018-05-18T03:42:35.976Z,61.73
2018-05-18T03:45:04.099Z,64.07
2018-05-18T03:47:32.243Z,63.70
2018-05-18T03:50:00.564Z,65.63
2018-05-18T03:52:28.684Z,65.03
2018-05-18T03:54:56.838Z,70.60
2018-05-18T03:57:24.982Z,73.28
2018-05-18T03:59:53.099Z,66.90
2018-05-18T04:02:32.992Z,69.77
2018-05-18T04:05:12.876Z,61.87
2018-05-18T04:10:41.276Z,72.83
2018-05-18T04:13:10.040Z,73.00
2018-05-18T04:15:38.159Z,87.57
2018-05-18T04:18:06.298Z,81.33
2018-05-18T04:20:34.428Z,79.33
2018-05-18T04:23:02.563Z,75.27
2018-05-18T04:25:30.994Z,80.00
2018-05-18T04:27:59.109Z,81.67
2018-05-18T04:30:27.250Z,76.93
2018-05-18T04:32:55.395Z,79.62
2018-05-18T04:35:23.519Z,90.12
2018-05-18T04:37:51.679Z,88.57
2018-05-18T04:40:19.811Z,84.43
2018-05-18T04:42:47.955Z,88.50
2018-05-18T04:45:16.083Z,86.28
2018-05-18T04:47:44.209Z,94.97
2018-05-18T04:50:12.349Z,87.30
2018-05-18T04:52:40.481Z,91.00
2018-05-18T04:55:08.628Z,87.32
2018-05-18T04:57:36.773Z,92.97
2018-05-18T05:00:04.898Z,86.80
2018-05-18T05:02:33.051Z,86.13
2018-05-18T05:05:01.969Z,84.47
2018-05-18T05:07:30.107Z,89.70
2018-05-18T05:09:58.243Z,85.87
2018-05-18T05:12:26.394Z,87.23
2018-05-18T05:14:54.531Z,79.13
2018-05-18T05:17:22.691Z,71.62
2018-05-18T05:19:50.815Z,84.57
2018-05-18T05:22:18.961Z,76.03
2018-05-18T05:24:47.107Z,74.37
2018-05-18T05:27:15.339Z,72.70
2018-05-18T05:29:43.502Z,86.72
2018-05-18T05:32:11.651Z,89.00
2018-05-18T05:34:39.822Z,80.53
2018-05-18T05:37:07.982Z,89.03
2018-05-18T05:39:36.100Z,84.30
2018-05-18T05:42:04.247Z,84.97
2018-05-18T05:44:32.382Z,84.82
2018-05-18T05:47:00.516Z,87.63
2018-05-18T05:49:28.669Z,86.00
2018-05-18T05:52:00.492Z,89.70
2018-05-18T05:54:28.658Z,94.80
2018-05-18T05:56:56.786Z,96.93
2018-05-18T05:59:24.939Z,92.20
2018-05-18T06:01:53.103Z,86.77
2018-05-18T06:04:21.234Z,94.67
2018-05-18T06:06:49.357Z,92.63
2018-05-18T06:09:17.503Z,93.18
2018-05-18T06:11:45.633Z,105.97
2018-05-18T06:14:13.791Z,95.67
2018-05-18T06:16:41.922Z,105.37
2018-05-18T06:19:10.054Z,98.43
2018-05-18T06:21:38.180Z,97.73
2018-05-18T06:24:06.330Z,98.95
2018-05-18T06:26:34.469Z,100.27
2018-05-18T06:29:02.612Z,105.93
2018-05-18T06:31:30.768Z,105.10
2018-05-18T06:33:58.905Z,115.03
2018-05-18T06:36:27.053Z,105.90
2018-05-18T06:38:55.203Z,109.13
2018-05-18T06:41:23.338Z,109.87
2018-05-18T06:43:51.501Z,103.73
2018-05-18T06:46:19.811Z,99.87
2018-05-18T06:48:47.942Z,107.13
2018-05-18T06:51:16.079Z,104.73
2018-05-18T06:53:44.217Z,104.53
2018-05-18T06:56:12.371Z,100.13
2018-05-18T06:58:40.550Z,93.13
2018-05-18T07:01:08.652Z,89.40
2018-05-18T07:03:36.769Z,90.07
2018-05-18T07:06:04.930Z,95.30
2018-05-18T07:08:33.056Z,102.27
2018-05-18T07:11:01.196Z,96.37
2018-05-18T07:13:29.335Z,108.13
2018-05-18T07:15:57.463Z,98.63
2018-05-18T07:18:27.097Z,95.10
2018-05-18T07:20:55.234Z,93.43
2018-05-18T07:23:23.362Z,103.50
2018-05-18T07:25:51.514Z,87.43
2018-05-18T07:28:19.642Z,84.30
2018-05-18T07:30:47.809Z,86.80
2018-05-18T07:33:15.939Z,86.87
2018-05-18T07:35:44.086Z,89.00
2018-05-18T07:38:12.233Z,89.10
2018-05-18T07:40:40.356Z,94.17
2018-05-18T07:43:08.528Z,96.37
2018-05-18T07:45:36.646Z,90.57
2018-05-18T07:48:05.638Z,85.53
2018-05-18T07:50:33.787Z,106.13
2018-05-18T07:53:01.921Z,86.17
2018-05-18T07:55:30.118Z,86.47
2018-05-18T07:57:58.242Z,87.17
2018-05-18T08:00:26.399Z,83.43
2018-05-18T08:02:54.708Z,73.13
2018-05-18T08:05:22.845Z,77.22
2018-05-18T08:07:50.970Z,78.60
2018-05-18T08:10:19.112Z,75.67
2018-05-18T08:12:47.247Z,68.70
2018-05-18T08:15:15.379Z,73.90
2018-05-18T08:17:43.678Z,77.63
2018-05-18T08:20:11.683Z,68.73
2018-05-18T08:22:39.814Z,83.25
2018-05-18T08:25:07.949Z,63.93
2018-05-18T08:27:36.093Z,68.63
2018-05-18T08:30:04.224Z,74.57
2018-05-18T08:32:32.352Z,73.77
2018-05-18T08:35:00.491Z,79.40
2018-05-18T08:37:28.631Z,84.70
2018-05-18T08:39:56.773Z,82.00
2018-05-18T08:42:24.905Z,74.83
2018-05-18T08:44:53.051Z,78.67
2018-05-18T08:47:21.185Z,66.90
2018-05-18T08:49:49.331Z,77.67
2018-05-18T08:52:17.475Z,80.23
2018-05-18T08:54:45.619Z,89.43
2018-05-18T08:57:13.755Z,78.33
2018-05-18T08:59:41.891Z,76.60
2018-05-18T09:02:10.027Z,78.23
2018-05-18T09:04:38.205Z,70.22
2018-05-18T09:07:06.414Z,83.00
2018-05-18T09:09:34.564Z,78.07
2018-05-18T09:12:02.698Z,74.73
2018-05-18T09:14:30.832Z,70.10
2018-05-18T09:16:58.982Z,73.63
2018-05-18T09:19:27.126Z,73.90
2018-05-18T09:21:55.269Z,74.77
2018-05-18T09:24:23.410Z,77.50
2018-05-18T09:26:51.537Z,75.67
2018-05-18T09:29:19.689Z,80.00
2018-05-18T09:31:47.842Z,70.03
2018-05-18T09:34:15.991Z,77.47
2018-05-18T09:36:44.136Z,81.90
2018-05-18T09:39:12.258Z,78.00
2018-05-18T09:41:40.406Z,78.73
2018-05-18T09:44:08.535Z,71.90
2018-05-18T09:46:36.663Z,79.97
2018-05-18T09:49:04.826Z,75.47
2018-05-18T09:51:32.958Z,61.77
2018-05-18T09:54:01.107Z,74.10
2018-05-18T09:56:29.254Z,83.63
2018-05-18T09:58:57.518Z,68.77
2018-05-18T10:01:25.658Z,68.20
2018-05-18T10:03:53.815Z,73.90
2018-05-18T10:06:21.951Z,73.90
2018-05-18T10:08:50.074Z,64.40
2018-05-18T10:11:18.218Z,72.82
2018-05-18T10:13:46.424Z,69.73
2018-05-18T10:16:14.567Z,64.43
2018-05-18T10:18:42.748Z,63.87
2018-05-18T10:21:10.841Z,80.17
2018-05-18T10:23:38.976Z,60.23
2018-05-18T10:26:07.168Z,61.80
2018-05-18T10:28:35.336Z,62.43
2018-05-18T10:31:03.436Z,48.63
2018-05-18T10:33:31.582Z,63.20
2018-05-18T10:35:59.729Z,60.27
2018-05-18T10:38:27.894Z,52.40
2018-05-18T10:40:56.021Z,47.20
2018-05-18T10:43:24.163Z,48.85
2018-05-18T10:45:52.317Z,44.75
2018-05-18T10:48:20.563Z,41.77
2018-05-18T10:50:48.706Z,45.20
2018-05-18T10:53:16.844Z,56.70
2018-05-18T10:55:44.972Z,53.73
2018-05-18T10:58:13.125Z,43.97
2018-05-18T11:00:41.309Z,39.33
2018-05-18T11:03:10.237Z,52.83
2018-05-18T11:05:38.362Z,48.40
2018-05-18T11:08:06.525Z,33.80
2018-05-18T11:10:34.658Z,46.33
2018-05-18T11:13:02.807Z,38.97
2018-05-18T11:15:30.952Z,46.50
2018-05-18T11:17:59.104Z,32.60
2018-05-18T11:20:27.235Z,47.93
2018-05-18T11:22:55.405Z,29.90
2018-05-18T11:25:23.531Z,34.55
2018-05-18T11:27:51.673Z,35.90
2018-05-18T11:30:19.966Z,34.90
2018-05-18T11:32:47.954Z,33.67
2018-05-18T11:35:16.094Z,41.25
2018-05-18T11:37:44.247Z,41.10
2018-05-18T11:40:12.411Z,32.20
2018-05-18T11:42:40.693Z,35.73
2018-05-18T11:45:08.834Z,38.00
2018-05-18T11:47:36.972Z,29.77
2018-05-18T11:50:05.099Z,28.97
2018-05-18T11:52:33.251Z,47.43
2018-05-18T11:55:01.400Z,33.60
2018-05-18T11:57:29.562Z,30.10
2018-05-18T11:59:58.455Z,30.03
2018-05-18T12:02:26.630Z,27.30
2018-05-18T12:04:54.724Z,35.50
2018-05-18T12:07:22.867Z,33.60
2018-05-18T12:09:51.003Z,31.20
2018-05-18T12:12:19.142Z,28.93
2018-05-18T12:14:47.310Z,24.60
2018-05-18T12:17:15.446Z,26.50
2018-05-18T12:19:43.578Z,40.00
2018-05-18T12:22:11.731Z,30.17
2018-05-18T12:24:39.865Z,29.20
2018-05-18T12:27:08.008Z,25.87
2018-05-18T12:29:36.144Z,24.73
2018-05-18T12:32:04.296Z,28.90
2018-05-18T12:34:32.437Z,24.57
2018-05-18T12:37:00.646Z,28.17
2018-05-18T12:39:28.769Z,30.00
2018-05-18T12:41:56.898Z,42.93
2018-05-18T12:44:25.035Z,26.63
2018-05-18T12:46:53.180Z,22.30
2018-05-18T12:49:21.327Z,31.83
2018-05-18T12:51:49.450Z,29.07
2018-05-18T12:54:17.576Z,23.90
2018-05-18T12:56:45.724Z,25.87
2018-05-18T12:59:13.868Z,24.03
2018-05-18T13:01:42.003Z,27.07
2018-05-18T13:04:10.131Z,31.13
2018-05-18T13:06:38.270Z,37.50
2018-05-18T13:09:06.459Z,24.63
2018-05-18T13:11:34.587Z,27.37
2018-05-18T13:14:02.730Z,26.20
2018-05-18T13:16:30.876Z,33.17
2018-05-18T13:18:59.019Z,22.77
2018-05-18T13:21:27.148Z,34.10
2018-05-18T13:23:55.292Z,28.70
2018-05-18T13:26:23.422Z,32.63
2018-05-18T13:28:51.565Z,29.50
2018-05-18T13:31:19.705Z,30.20
2018-05-18T13:33:47.859Z,32.60
2018-05-18T13:36:16.010Z,37.13
2018-05-18T13:38:44.255Z,34.30
2018-05-18T13:41:12.322Z,35.37
2018-05-18T13:43:40.446Z,29.43
2018-05-18T13:46:08.594Z,31.27
2018-05-18T13:48:36.743Z,29.57
2018-05-18T13:51:04.905Z,33.73
2018-05-18T13:53:33.042Z,41.07
2018-05-18T13:56:01.181Z,34.17
2018-05-18T13:58:29.319Z,27.50
2018-05-18T14:00:57.445Z,31.10
2018-05-18T14:03:25.722Z,21.10
2018-05-18T14:05:53.888Z,33.13
2018-05-18T14:08:22.013Z,25.50
2018-05-18T14:10:50.164Z,30.67
2018-05-18T14:13:18.309Z,22.62
2018-05-18T14:15:46.447Z,28.27
2018-05-18T14:18:14.592Z,38.83
2018-05-18T14:20:42.867Z,34.13
2018-05-18T14:23:11.006Z,30.47
2018-05-18T14:25:42.508Z,31.30
2018-05-18T14:28:11.203Z,28.20
2018-05-18T14:30:39.342Z,22.10
2018-05-18T14:33:07.871Z,23.50
2018-05-18T14:35:36.017Z,32.20
2018-05-18T14:38:04.283Z,33.07
2018-05-18T14:40:32.331Z,28.83
2018-05-18T14:43:00.495Z,34.60
2018-05-18T14:45:29.017Z,24.00
2018-05-18T14:47:58.033Z,27.03
2018-05-18T14:50:26.170Z,29.87
2018-05-18T14:52:54.355Z,24.23
2018-05-18T14:55:22.509Z,29.80
2018-05-18T14:57:50.640Z,23.63
2018-05-18T15:00:18.788Z,37.53
2018-05-18T15:02:47.628Z,24.73
2018-05-18T15:05:15.800Z,35.00
2018-05-18T15:07:43.956Z,27.63
2018-05-18T15:10:12.095Z,22.73
2018-05-18T15:12:40.227Z,30.43
2018-05-18T15:15:08.373Z,25.23
2018-05-18T15:17:36.503Z,21.30
2018-05-18T15:20:04.633Z,17.17
2018-05-18T15:22:32.768Z,12.90
2018-05-18T15:25:00.893Z,9.10
2018-05-18T15:27:29.050Z,20.57
2018-05-18T15:29:57.235Z,16.87
2018-05-18T15:32:26.428Z,8.50
2018-05-18T15:34:54.553Z,11.40
2018-05-18T15:37:22.773Z,9.45
2018-05-18T15:39:50.827Z,5.87
2018-05-18T15:42:18.946Z,5.47
2018-05-18T15:44:47.073Z,7.30
2018-05-18T15:47:15.192Z,4.47
2018-05-18T15:49:43.329Z,3.60
2018-05-18T15:52:11.476Z,4.13
2018-05-18T15:54:39.593Z,4.23
2018-05-18T15:57:07.735Z,4.20
2018-05-18T15:59:35.849Z,6.73
2018-05-18T16:02:03.975Z,4.37
2018-05-18T16:04:32.103Z,4.93
2018-05-18T16:07:02.310Z,4.93
2018-05-18T16:09:30.430Z,5.10
2018-05-18T16:11:58.555Z,5.00
2018-05-18T16:14:26.686Z,5.93
2018-05-18T16:16:54.819Z,5.07
2018-05-18T16:19:23.016Z,5.60
2018-05-18T16:21:51.135Z,5.70
2018-05-18T16:24:19.363Z,6.03
2018-05-18T16:26:47.650Z,5.57
2018-05-18T16:29:15.770Z,8.07
2018-05-18T16:31:43.883Z,8.83
2018-05-18T16:34:12.077Z,7.20
2018-05-18T16:36:40.158Z,6.03
2018-05-18T16:39:08.297Z,7.30
2018-05-18T16:41:36.436Z,6.63
2018-05-18T16:44:04.621Z,5.83
2018-05-18T16:46:32.742Z,9.50
2018-05-18T16:49:00.934Z,6.70
2018-05-18T16:51:29.074Z,5.60
2018-05-18T16:53:57.208Z,6.40
2018-05-18T16:56:25.357Z,8.10
2018-05-18T16:58:53.485Z,6.87
2018-05-18T17:01:21.615Z,11.07
2018-05-18T17:03:49.783Z,6.77
2018-05-18T17:06:17.911Z,9.00
2018-05-18T17:08:46.043Z,7.30
2018-05-18T17:11:14.162Z,7.60
2018-05-18T17:13:42.286Z,6.77
2018-05-18T17:16:10.412Z,6.53
2018-05-18T17:18:38.531Z,8.43
2018-05-18T17:21:06.758Z,6.83
2018-05-18T17:23:34.869Z,5.90
2018-05-18T17:26:02.999Z,7.90
2018-05-18T17:28:31.137Z,6.23
2018-05-18T17:30:59.265Z,8.27
2018-05-18T17:33:27.415Z,5.97
2018-05-18T17:35:58.638Z,6.10
2018-05-18T17:38:27.008Z,4.90
2018-05-18T17:40:55.120Z,5.90
2018-05-18T17:43:23.261Z,5.83
2018-05-18T17:45:51.401Z,6.57
2018-05-18T17:48:19.536Z,7.47
2018-05-18T17:50:47.663Z,8.82
2018-05-18T17:53:15.827Z,9.48
2018-05-18T17:55:43.975Z,6.40
2018-05-18T17:58:12.091Z,5.40
2018-05-18T18:00:40.222Z,5.67
2018-05-18T18:03:08.378Z,12.73
2018-05-18T18:05:36.519Z,5.13
2018-05-18T18:08:04.655Z,5.90
2018-05-18T18:10:32.803Z,8.73
2018-05-18T18:13:00.927Z,5.67
2018-05-18T18:15:34.847Z,9.17
2018-05-18T18:18:05.057Z,7.90
2018-05-18T18:20:34.273Z,15.63
2018-05-18T18:23:02.581Z,4.83
2018-05-18T18:25:30.714Z,5.57
2018-05-18T18:27:58.850Z,8.13
2018-05-18T18:30:26.982Z,4.73
2018-05-18T18:32:55.145Z,5.20
2018-05-18T18:35:39.529Z,5.60
2018-05-18T18:38:10.044Z,11.60
2018-05-18T18:40:38.394Z,8.37
2018-05-18T18:43:06.618Z,5.47
2018-05-18T18:45:34.734Z,6.07
2018-05-18T18:48:02.862Z,9.00
2018-05-18T18:50:30.999Z,5.10
2018-05-18T18:55:34.434Z,6.90
2018-05-18T18:58:02.573Z,6.43
2018-05-18T19:00:30.691Z,11.00
2018-05-18T19:02:58.798Z,6.73
2018-05-18T19:05:26.927Z,7.47
2018-05-18T19:07:55.056Z,7.03
2018-05-18T19:10:23.178Z,17.03
2018-05-18T19:12:51.333Z,14.03
2018-05-18T19:15:19.486Z,7.37
2018-05-18T19:17:47.570Z,8.93
2018-05-18T19:20:15.697Z,10.33
2018-05-18T19:22:43.808Z,10.27
2018-05-18T19:25:11.987Z,12.43
2018-05-18T19:27:40.119Z,9.60
2018-05-18T19:30:08.236Z,10.57
2018-05-18T19:32:36.370Z,9.37
2018-05-18T19:35:04.857Z,13.13
2018-05-18T19:37:32.980Z,9.70
2018-05-18T19:40:01.105Z,11.23
2018-05-18T19:42:29.228Z,10.50
2018-05-18T19:44:57.363Z,14.77
2018-05-18T19:47:25.491Z,10.30
2018-05-18T19:49:53.663Z,10.70
2018-05-18T19:52:21.772Z,9.97
2018-05-18T19:54:49.899Z,10.40
2018-05-18T19:57:18.050Z,11.30
2018-05-18T19:59:46.187Z,10.93
2018-05-18T20:02:14.308Z,11.90
2018-05-18T20:04:42.455Z,12.00
2018-05-18T20:07:10.599Z,18.30
2018-05-18T20:09:38.727Z,23.10
2018-05-18T20:12:06.875Z,24.83
2018-05-18T20:14:35.008Z,28.43
2018-05-18T20:17:03.164Z,27.02
2018-05-18T20:19:31.298Z,27.47
2018-05-18T20:21:59.430Z,27.30
2018-05-18T20:24:27.562Z,24.27
2018-05-18T20:26:55.682Z,30.90
2018-05-18T20:29:23.806Z,26.93
2018-05-18T20:31:52.087Z,26.97
2018-05-18T20:34:20.239Z,23.50
2018-05-18T20:36:48.382Z,20.20
2018-05-18T20:39:16.495Z,20.50
2018-05-18T20:41:44.627Z,23.67
2018-05-18T20:44:12.756Z,31.80
2018-05-18T20:46:41.936Z,21.13
2018-05-18T20:49:10.399Z,22.73
2018-05-18T20:51:38.517Z,17.80
2018-05-18T20:54:06.677Z,18.03
2018-05-18T20:56:34.859Z,21.23
2018-05-18T20:59:02.968Z,21.80
2018-05-18T21:01:31.091Z,20.23
2018-05-18T21:03:59.235Z,19.10
2018-05-18T21:06:27.362Z,19.80
2018-05-18T21:08:55.510Z,17.17
2018-05-18T21:11:23.639Z,21.00
2018-05-18T21:13:51.782Z,25.30
2018-05-18T21:16:19.970Z,19.30
2018-05-18T21:18:48.106Z,24.17
2018-05-18T21:21:16.234Z,27.47
2018-05-18T21:23:44.369Z,25.80
2018-05-18T21:26:12.516Z,20.23
2018-05-18T21:28:40.650Z,22.23
2018-05-18T21:31:08.791Z,27.13
2018-05-18T21:33:36.931Z,22.73
2018-05-18T21:36:05.058Z,23.73
2018-05-18T21:38:33.201Z,22.30
2018-05-18T21:41:01.343Z,28.87
2018-05-18T21:43:29.490Z,27.57
2018-05-18T21:45:57.639Z,32.27
2018-05-18T21:48:25.793Z,24.27
2018-05-18T21:50:53.954Z,33.33
2018-05-18T21:53:22.084Z,17.90
2018-05-18T21:55:50.246Z,29.53
2018-05-18T21:58:18.405Z,18.87
2018-05-18T22:00:46.540Z,23.33
2018-05-18T22:03:14.679Z,21.50
2018-05-18T22:05:42.797Z,19.97
2018-05-18T22:08:10.924Z,31.50
2018-05-18T22:10:39.078Z,24.50
2018-05-18T22:13:07.242Z,19.12
2018-05-18T22:15:35.374Z,18.87
2018-05-18T22:18:03.502Z,20.37
2018-05-18T22:20:31.985Z,19.17
2018-05-18T22:23:01.231Z,21.67
2018-05-18T22:25:29.845Z,22.90
2018-05-18T22:27:57.989Z,21.27
2018-05-18T22:30:26.120Z,24.27
2018-05-18T22:32:54.250Z,27.20
2018-05-18T22:35:22.640Z,22.87
2018-05-18T22:37:50.778Z,24.37
2018-05-18T22:40:18.914Z,26.00
2018-05-18T22:42:47.051Z,28.03
2018-05-18T22:45:15.249Z,22.43
2018-05-18T22:47:43.899Z,21.73
2018-05-18T22:50:12.040Z,22.37
2018-05-18T22:52:40.154Z,24.30
2018-05-18T22:55:08.304Z,24.17
2018-05-18T22:57:36.422Z,22.13
2018-05-18T23:00:04.555Z,21.60
2018-05-18T23:02:32.683Z,22.10
2018-05-18T23:05:00.811Z,20.53
2018-05-18T23:07:28.943Z,21.97
2018-05-18T23:09:57.262Z,25.40
2018-05-18T23:12:25.380Z,19.93
2018-05-18T23:14:55.361Z,21.77
2018-05-18T23:17:23.520Z,20.55
2018-05-18T23:19:51.650Z,29.17
2018-05-18T23:22:19.773Z,27.27
2018-05-18T23:24:47.927Z,23.13
2018-05-18T23:27:16.055Z,28.77
2018-05-18T23:29:44.187Z,22.40
2018-05-18T23:32:12.321Z,27.50
2018-05-18T23:34:40.452Z,26.13
2018-05-18T23:37:08.588Z,25.77
2018-05-18T23:39:36.722Z,27.37
2018-05-18T23:42:04.852Z,30.83
2018-05-18T23:44:33.035Z,27.63
2018-05-18T23:47:01.123Z,25.77
2018-05-18T23:49:29.257Z,25.60
2018-05-18T23:51:57.409Z,31.97
2018-05-18T23:54:25.547Z,26.80
2018-05-18T23:56:53.666Z,23.63
2018-05-18T23:59:21.790Z,26.37
